Time;durP1;ratioP1;P1;durP2;ratioP2;P2;SDS_P1;SDS_P2;PMS_P1;PMS_P2;Temp;Humidity;BMP_temperature;BMP_pressure;BME280_temperature;BME280_humidity;BME280_pressure;Samples;Min_cycle;Max_cycle;Signal;HPM_P1;HPM_P2
2023/05/20 00:01:58;;;;;;;9.35;3.30;;;14.30;85.10;;;;;;6241306;23;20002;-70
2023/05/20 00:04:23;;;;;;;7.57;3.38;;;14.20;85.40;;;;;;6240237;23;20079;-70
2023/05/20 00:06:49;;;;;;;7.82;2.88;;;14.20;85.80;;;;;;6241262;23;20000;-71
2023/05/20 00:09:16;;;;;;;10.02;3.72;;;14.20;86.10;;;;;;6240186;23;20058;-70
2023/05/20 00:11:42;;;;;;;4.78;3.42;;;14.10;86.30;;;;;;6240755;23;20004;-70
2023/05/20 00:14:07;;;;;;;7.55;3.05;;;14.10;86.50;;;;;;6240129;23;20080;-70
2023/05/20 00:16:33;;;;;;;7.32;3.13;;;14.10;86.90;;;;;;6240603;23;20001;-70
2023/05/20 00:18:58;;;;;;;9.38;3.75;;;14.10;87.00;;;;;;6213978;23;20256;-70
2023/05/20 00:21:24;;;;;;;5.07;3.00;;;14.00;87.30;;;;;;6240344;23;20008;-70
2023/05/20 00:23:50;;;;;;;7.30;3.72;;;14.00;87.50;;;;;;6213786;23;20012;-70
2023/05/20 00:26:15;;;;;;;8.38;3.22;;;14.00;87.60;;;;;;6240577;23;20016;-70
2023/05/20 00:28:41;;;;;;;6.82;4.03;;;14.00;87.80;;;;;;6240207;23;20008;-70
2023/05/20 00:31:07;;;;;;;7.78;4.45;;;14.00;88.00;;;;;;6240990;23;20000;-70
2023/05/20 00:33:33;;;;;;;5.90;3.30;;;14.00;88.50;;;;;;6240157;23;20337;-70
2023/05/20 00:35:59;;;;;;;6.47;3.50;;;14.00;88.70;;;;;;6241095;23;20107;-70
2023/05/20 00:38:25;;;;;;;8.75;3.63;;;14.00;89.00;;;;;;6240182;23;20103;-70
2023/05/20 00:40:50;;;;;;;9.25;3.15;;;14.00;89.80;;;;;;6241292;23;20108;-70
2023/05/20 00:43:16;;;;;;;7.47;3.75;;;14.00;89.30;;;;;;6239903;23;20039;-70
2023/05/20 00:45:41;;;;;;;6.97;3.90;;;14.00;89.40;;;;;;6240735;23;20039;-70
2023/05/20 00:48:08;;;;;;;6.25;3.60;;;14.00;89.70;;;;;;6240720;23;20511;-70
2023/05/20 00:50:34;;;;;;;9.90;4.38;;;14.10;90.00;;;;;;6240719;23;20011;-70
2023/05/20 00:53:00;;;;;;;9.40;4.03;;;14.00;90.10;;;;;;6240827;23;20039;-71
2023/05/20 00:55:26;;;;;;;7.32;3.45;;;14.10;90.10;;;;;;6239865;23;20004;-70
2023/05/20 00:57:52;;;;;;;6.57;3.67;;;14.00;90.10;;;;;;6239953;23;20087;-71
2023/05/20 01:00:17;;;;;;;8.90;3.22;;;14.10;90.30;;;;;;6212596;23;20090;-70
2023/05/20 01:02:43;;;;;;;6.07;4.22;;;14.00;90.40;;;;;;6239704;23;20062;-70
2023/05/20 01:05:09;;;;;;;9.60;4.40;;;14.00;90.50;;;;;;6238969;23;20190;-71
2023/05/20 01:07:35;;;;;;;7.20;3.08;;;14.00;90.60;;;;;;6239040;23;20004;-70
2023/05/20 01:10:01;;;;;;;6.97;3.97;;;14.00;90.60;;;;;;6239929;23;20010;-70
2023/05/20 01:12:40;;;;;;;8.43;3.50;;;14.00;90.80;;;;;;6239716;23;20001;-70
2023/05/20 01:15:14;;;;;;;7.03;3.22;;;14.00;90.90;;;;;;6240505;23;20138;-70
2023/05/20 01:17:45;;;;;;;8.88;4.78;;;14.00;91.00;;;;;;6242391;23;20446;-70
2023/05/20 01:20:13;;;;;;;12.85;3.88;;;13.90;91.30;;;;;;6242123;23;20007;-70
2023/05/20 01:22:51;;;;;;;5.25;3.20;;;13.90;91.30;;;;;;6215364;23;20338;-70
2023/05/20 01:25:16;;;;;;;4.57;3.03;;;13.90;91.30;;;;;;6241174;23;20016;-71
2023/05/20 01:27:43;;;;;;;5.22;3.33;;;13.90;91.40;;;;;;6242115;23;20016;-70
2023/05/20 01:30:10;;;;;;;9.45;4.07;;;13.90;91.40;;;;;;6242230;23;19997;-70
2023/05/20 01:32:42;;;;;;;5.28;3.40;;;13.90;91.60;;;;;;6242315;23;19996;-70
2023/05/20 01:35:09;;;;;;;5.38;3.78;;;13.90;91.70;;;;;;6242373;23;20456;-70
2023/05/20 01:37:39;;;;;;;4.82;3.28;;;13.90;91.80;;;;;;6241869;23;20378;-70
2023/05/20 01:40:07;;;;;;;8.00;3.63;;;13.90;91.90;;;;;;6241790;23;20004;-70
2023/05/20 01:42:34;;;;;;;7.13;3.65;;;13.90;92.00;;;;;;6241902;23;20054;-70
2023/05/20 01:45:00;;;;;;;10.52;4.18;;;13.90;92.10;;;;;;6242454;23;20406;-70
2023/05/20 01:47:25;;;;;;;7.65;3.53;;;13.90;92.20;;;;;;6241671;23;20015;-70
2023/05/20 01:49:53;;;;;;;5.75;3.83;;;13.90;92.20;;;;;;6242441;23;20000;-70
2023/05/20 01:52:19;;;;;;;11.65;4.72;;;13.90;92.30;;;;;;6242026;23;20058;-70
2023/05/20 01:54:49;;;;;;;9.93;5.18;;;14.00;92.50;;;;;;6241518;23;20011;-71
2023/05/20 01:57:17;;;;;;;6.05;3.92;;;14.00;92.60;;;;;;6241945;23;20000;-70
2023/05/20 01:59:43;;;;;;;9.60;3.88;;;14.00;92.70;;;;;;6241908;23;20008;-70
2023/05/20 02:02:09;;;;;;;6.22;3.40;;;14.00;92.80;;;;;;6242134;23;20086;-71
2023/05/20 02:04:34;;;;;;;7.50;3.65;;;13.90;92.80;;;;;;6241931;23;20020;-70
2023/05/20 02:07:00;;;;;;;8.18;3.60;;;14.00;92.80;;;;;;6241759;23;20067;-70
2023/05/20 02:09:26;;;;;;;5.03;3.90;;;13.90;92.80;;;;;;6241198;23;20027;-70
2023/05/20 02:11:51;;;;;;;6.93;4.18;;;14.00;92.90;;;;;;6214948;23;19997;-70
2023/05/20 02:14:17;;;;;;;6.72;3.75;;;14.00;93.00;;;;;;6241862;23;20007;-70
2023/05/20 02:16:42;;;;;;;7.47;3.70;;;13.90;93.00;;;;;;6241493;23;20082;-70
2023/05/20 02:19:11;;;;;;;8.30;4.35;;;13.90;93.10;;;;;;6242057;23;20382;-70
2023/05/20 02:21:40;;;;;;;8.73;3.95;;;13.90;93.20;;;;;;6214510;23;20074;-70
2023/05/20 02:24:06;;;;;;;7.07;3.50;;;13.90;93.20;;;;;;6241084;23;20377;-70
2023/05/20 02:26:33;;;;;;;8.02;3.15;;;13.90;93.30;;;;;;6213231;23;20047;-70
2023/05/20 02:28:59;;;;;;;9.65;3.92;;;13.90;93.40;;;;;;6213936;23;20066;-70
2023/05/20 02:31:24;;;;;;;6.18;3.65;;;13.90;93.60;;;;;;6241356;23;20011;-70
2023/05/20 02:33:50;;;;;;;4.93;3.47;;;13.90;93.60;;;;;;6241619;23;19996;-70
2023/05/20 02:36:16;;;;;;;5.20;3.33;;;13.90;93.70;;;;;;6241537;23;20000;-70
2023/05/20 02:38:42;;;;;;;6.60;3.25;;;13.90;93.70;;;;;;6240969;23;20008;-70
2023/05/20 02:41:07;;;;;;;10.40;3.70;;;13.90;93.70;;;;;;6241734;23;20044;-70
2023/05/20 02:43:33;;;;;;;5.00;3.65;;;13.80;93.70;;;;;;6241111;23;20362;-70
2023/05/20 02:45:59;;;;;;;4.85;3.25;;;14.00;93.80;;;;;;6242031;23;20008;-70
2023/05/20 02:48:25;;;;;;;10.73;5.13;;;13.90;93.80;;;;;;6240628;23;19997;-70
2023/05/20 02:50:51;;;;;;;6.88;3.22;;;13.80;93.90;;;;;;6241887;23;20440;-70
2023/05/20 02:53:17;;;;;;;5.13;4.03;;;13.80;94.00;;;;;;6240602;23;20004;-70
2023/05/20 02:55:46;;;;;;;7.68;3.90;;;13.80;94.10;;;;;;6241466;23;20735;-70
2023/05/20 02:58:12;;;;;;;10.02;4.45;;;13.80;94.20;;;;;;6241175;23;20330;-70
2023/05/20 03:00:39;;;;;;;7.75;4.38;;;13.70;94.30;;;;;;6214654;23;20341;-70
2023/05/20 03:03:06;;;;;;;9.63;4.60;;;13.70;94.40;;;;;;6241196;23;20103;-70
2023/05/20 03:05:36;;;;;;;7.50;3.80;;;13.70;94.50;;;;;;6241111;23;20016;-70
2023/05/20 03:08:06;;;;;;;9.77;3.80;;;13.70;94.60;;;;;;6241020;23;20402;-70
2023/05/20 03:10:31;;;;;;;4.90;4.00;;;13.60;94.70;;;;;;6240677;23;20043;-70
2023/05/20 03:12:57;;;;;;;7.80;3.92;;;13.60;94.80;;;;;;6241327;23;20070;-70
2023/05/20 03:15:22;;;;;;;8.30;4.20;;;13.50;94.80;;;;;;6240800;23;20026;-70
2023/05/20 03:17:48;;;;;;;7.97;4.90;;;13.50;94.90;;;;;;6241503;23;20102;-70
2023/05/20 03:20:15;;;;;;;9.55;4.60;;;13.40;95.20;;;;;;6240866;23;20011;-70
2023/05/20 03:22:41;;;;;;;6.95;3.15;;;13.40;95.30;;;;;;6240683;23;20306;-70
2023/05/20 03:25:06;;;;;;;8.80;4.60;;;13.40;95.40;;;;;;6240925;23;20000;-70
2023/05/20 03:27:33;;;;;;;6.95;4.55;;;13.30;95.50;;;;;;6240822;23;20087;-70
2023/05/20 03:29:58;;;;;;;7.97;4.60;;;13.30;95.80;;;;;;6241040;23;20006;-70
2023/05/20 03:32:24;;;;;;;5.72;4.38;;;13.20;96.10;;;;;;6240701;23;20024;-70
2023/05/20 03:34:49;;;;;;;8.95;3.58;;;13.20;95.90;;;;;;6240963;23;20445;-70
2023/05/20 03:37:15;;;;;;;8.13;4.18;;;13.20;96.00;;;;;;6240347;23;20072;-70
2023/05/20 03:39:40;;;;;;;5.95;4.13;;;13.20;96.10;;;;;;6240569;23;20027;-70
2023/05/20 03:42:06;;;;;;;8.88;4.20;;;13.10;96.30;;;;;;6241253;23;20074;-70
2023/05/20 03:44:32;;;;;;;7.80;3.42;;;13.10;96.40;;;;;;6240511;23;19996;-69
2023/05/20 03:46:57;;;;;;;8.68;4.05;;;13.10;96.50;;;;;;6241443;23;20001;-70
2023/05/20 03:49:23;;;;;;;5.72;4.32;;;13.10;96.80;;;;;;6240344;23;20095;-70
2023/05/20 03:51:48;;;;;;;8.55;4.68;;;13.10;96.90;;;;;;6240626;23;19996;-70
2023/05/20 03:54:16;;;;;;;10.45;4.25;;;13.10;97.10;;;;;;6240570;23;20008;-70
2023/05/20 03:56:41;;;;;;;5.28;3.70;;;13.10;97.10;;;;;;6240701;23;20737;-70
2023/05/20 03:59:07;;;;;;;7.18;3.88;;;13.00;97.10;;;;;;6240838;23;20149;-70
2023/05/20 04:01:33;;;;;;;6.47;4.32;;;13.00;97.30;;;;;;6240684;23;20027;-70
2023/05/20 04:03:59;;;;;;;8.90;4.43;;;13.00;97.40;;;;;;6241038;23;20414;-70
2023/05/20 04:06:25;;;;;;;10.48;4.20;;;13.00;97.50;;;;;;6239618;23;20002;-70
2023/05/20 04:08:52;;;;;;;6.72;3.92;;;13.00;97.60;;;;;;6240883;23;20012;-70
2023/05/20 04:11:17;;;;;;;6.97;3.67;;;13.00;97.60;;;;;;6240799;23;20437;-70
2023/05/20 04:13:43;;;;;;;7.97;3.75;;;13.00;97.70;;;;;;6240472;23;20084;-70
2023/05/20 04:16:08;;;;;;;9.20;5.05;;;13.00;97.90;;;;;;6240959;23;20245;-70
2023/05/20 04:18:37;;;;;;;5.47;3.67;;;13.00;98.00;;;;;;6240420;23;20011;-70
2023/05/20 04:21:03;;;;;;;9.23;3.75;;;13.00;98.00;;;;;;6240716;23;20058;-70
2023/05/20 04:23:29;;;;;;;4.80;3.55;;;13.00;98.30;;;;;;6240575;23;20209;-70
2023/05/20 04:25:54;;;;;;;6.05;3.55;;;13.00;98.40;;;;;;6240614;23;20020;-70
2023/05/20 04:28:22;;;;;;;6.63;4.00;;;13.00;98.50;;;;;;6240403;23;20027;-70
2023/05/20 04:30:48;;;;;;;4.93;3.72;;;13.00;98.60;;;;;;6240384;23;20006;-70
2023/05/20 04:33:15;;;;;;;6.63;3.90;;;13.00;98.70;;;;;;6239971;23;20011;-70
2023/05/20 04:35:41;;;;;;;6.68;3.13;;;13.00;98.80;;;;;;6240319;23;20004;-70
2023/05/20 04:38:07;;;;;;;9.75;4.13;;;13.00;98.80;;;;;;6240867;23;20005;-70
2023/05/20 04:40:33;;;;;;;5.63;3.40;;;13.00;98.80;;;;;;6240131;23;20311;-70
2023/05/20 04:43:02;;;;;;;5.55;3.50;;;13.10;98.90;;;;;;6240987;23;20004;-70
2023/05/20 04:45:28;;;;;;;8.52;3.63;;;13.10;98.80;;;;;;6240235;23;20035;-70
2023/05/20 04:47:53;;;;;;;5.78;3.17;;;13.10;98.80;;;;;;6240617;23;20011;-70
2023/05/20 04:50:20;;;;;;;8.95;3.95;;;13.20;98.80;;;;;;6240366;23;20004;-70
2023/05/20 04:52:46;;;;;;;7.10;3.90;;;13.20;98.80;;;;;;6242456;23;20012;-70
2023/05/20 04:55:12;;;;;;;6.75;3.90;;;13.20;98.80;;;;;;6242187;23;19997;-70
2023/05/20 04:57:41;;;;;;;6.38;3.65;;;13.30;98.80;;;;;;6215717;23;20115;-71
2023/05/20 05:00:09;;;;;;;6.63;3.85;;;13.20;98.80;;;;;;6242485;23;20000;-71
2023/05/20 05:02:35;;;;;;;6.32;3.47;;;13.30;98.70;;;;;;6241699;23;20000;-71
2023/05/20 05:05:01;;;;;;;5.65;3.60;;;13.30;98.70;;;;;;6242332;23;20004;-71
2023/05/20 05:07:26;;;;;;;5.45;3.35;;;13.40;98.70;;;;;;6241953;23;20492;-71
2023/05/20 05:09:52;;;;;;;7.18;4.00;;;13.40;98.70;;;;;;6242629;23;20000;-71
2023/05/20 05:12:17;;;;;;;5.07;3.45;;;13.40;98.70;;;;;;6241865;23;20011;-71
2023/05/20 05:14:43;;;;;;;7.95;4.75;;;13.40;98.70;;;;;;6215286;23;20082;-71
2023/05/20 05:17:08;;;;;;;5.20;3.38;;;13.50;98.70;;;;;;6241798;23;20054;-71
2023/05/20 05:19:34;;;;;;;7.53;3.20;;;13.50;98.70;;;;;;6242069;23;20019;-71
2023/05/20 05:21:59;;;;;;;5.22;3.72;;;13.50;98.70;;;;;;6242299;23;20311;-71
2023/05/20 05:24:25;;;;;;;5.10;3.67;;;13.60;98.70;;;;;;6241748;23;20000;-71
2023/05/20 05:26:54;;;;;;;7.63;3.72;;;13.60;98.70;;;;;;6242105;23;20019;-70
2023/05/20 05:29:20;;;;;;;7.35;4.43;;;13.60;98.60;;;;;;6242015;23;20008;-70
2023/05/20 05:31:45;;;;;;;4.30;3.47;;;13.70;98.60;;;;;;6241424;23;20007;-71
2023/05/20 05:34:11;;;;;;;6.25;3.67;;;13.70;98.60;;;;;;6241797;23;20006;-71
2023/05/20 05:36:39;;;;;;;5.35;3.95;;;13.80;98.80;;;;;;6241835;23;20003;-71
2023/05/20 05:39:05;;;;;;;7.63;3.78;;;13.80;98.50;;;;;;6242451;23;20081;-70
2023/05/20 05:41:30;;;;;;;9.80;4.63;;;13.90;98.40;;;;;;6214447;23;20481;-70
2023/05/20 05:43:57;;;;;;;4.97;3.47;;;13.90;98.20;;;;;;6242520;23;19996;-71
2023/05/20 05:46:23;;;;;;;6.97;4.05;;;13.90;98.40;;;;;;6241070;23;20008;-71
2023/05/20 05:48:49;;;;;;;6.28;3.65;;;13.90;98.10;;;;;;6242388;23;20015;-71
2023/05/20 05:51:15;;;;;;;6.10;3.60;;;14.00;98.20;;;;;;6214678;23;20054;-71
2023/05/20 05:53:41;;;;;;;6.10;3.55;;;14.00;98.10;;;;;;6241849;23;20000;-71
2023/05/20 05:56:06;;;;;;;7.65;3.78;;;14.00;97.90;;;;;;6242058;23;20712;-70
2023/05/20 05:58:33;;;;;;;6.93;3.95;;;14.10;98.00;;;;;;6241684;23;20057;-71
2023/05/20 06:00:58;;;;;;;6.57;3.60;;;14.10;97.90;;;;;;6241426;23;20201;-70
2023/05/20 06:03:24;;;;;;;5.32;3.10;;;14.10;97.90;;;;;;6241292;23;20031;-70
2023/05/20 06:05:50;;;;;;;5.65;3.53;;;14.20;97.70;;;;;;6242408;23;20369;-70
2023/05/20 06:08:15;;;;;;;5.75;4.07;;;14.20;97.70;;;;;;6214588;23;20012;-70
2023/05/20 06:10:45;;;;;;;6.25;2.88;;;14.30;97.60;;;;;;6214751;23;20497;-71
2023/05/20 06:13:11;;;;;;;6.05;3.33;;;14.30;97.60;;;;;;6214377;23;20000;-71
2023/05/20 06:15:36;;;;;;;6.95;4.03;;;14.30;97.50;;;;;;6240896;23;20000;-71
2023/05/20 06:18:02;;;;;;;6.93;2.92;;;14.40;97.40;;;;;;6242080;23;20007;-71
2023/05/20 06:20:27;;;;;;;3.25;2.95;;;14.50;97.30;;;;;;6214271;23;20008;-70
2023/05/20 06:22:53;;;;;;;7.07;3.88;;;14.50;97.20;;;;;;6212160;23;20014;-71
2023/05/20 06:25:18;;;;;;;3.97;3.25;;;14.60;97.20;;;;;;6213073;23;20038;-70
2023/05/20 06:27:44;;;;;;;4.63;3.28;;;14.70;97.20;;;;;;6240989;23;20004;-71
2023/05/20 06:30:10;;;;;;;6.80;3.20;;;14.70;97.10;;;;;;6241321;23;20000;-71
2023/05/20 06:32:35;;;;;;;3.78;2.60;;;14.80;97.00;;;;;;6241470;23;19996;-71
2023/05/20 06:35:01;;;;;;;22.02;4.85;;;14.80;97.00;;;;;;6241802;23;20310;-71
2023/05/20 06:37:27;;;;;;;7.85;3.65;;;14.90;96.90;;;;;;6214001;23;20374;-71
2023/05/20 06:39:52;;;;;;;4.43;2.90;;;15.00;96.70;;;;;;6242322;23;20114;-71
2023/05/20 06:42:20;;;;;;;7.88;3.50;;;15.00;96.60;;;;;;6241348;23;20015;-71
2023/05/20 06:44:45;;;;;;;8.82;3.53;;;15.10;96.60;;;;;;6241011;23;20504;-71
2023/05/20 06:47:13;;;;;;;9.43;3.30;;;15.20;96.50;;;;;;6241181;23;20040;-71
2023/05/20 06:49:39;;;;;;;7.93;3.13;;;15.30;96.30;;;;;;6241549;23;20050;-71
2023/05/20 06:52:05;;;;;;;4.22;3.03;;;15.30;96.10;;;;;;6241502;23;20008;-71
2023/05/20 06:54:33;;;;;;;4.15;2.88;;;15.40;96.10;;;;;;6240490;23;20169;-72
2023/05/20 06:56:58;;;;;;;4.00;2.63;;;15.40;95.70;;;;;;6241258;23;20002;-71
2023/05/20 06:59:24;;;;;;;5.93;3.13;;;15.50;95.50;;;;;;6213362;23;20000;-70
2023/05/20 07:01:50;;;;;;;3.95;2.50;;;15.60;95.40;;;;;;6214353;23;20008;-72
2023/05/20 07:04:15;;;;;;;6.85;2.63;;;15.70;95.20;;;;;;6241049;23;20307;-71
2023/05/20 07:06:41;;;;;;;10.38;3.22;;;15.70;95.10;;;;;;6240952;23;20011;-73
2023/05/20 07:09:06;;;;;;;3.90;2.97;;;15.80;94.90;;;;;;6243371;23;20372;-73
2023/05/20 07:11:32;;;;;;;4.63;3.05;;;15.80;94.80;;;;;;6241609;23;19996;-73
2023/05/20 07:13:58;;;;;;;3.58;2.78;;;16.00;94.50;;;;;;6214528;23;20091;-72
2023/05/20 07:16:23;;;;;;;5.93;2.47;;;16.10;94.20;;;;;;6241153;23;20000;-72
2023/05/20 07:18:49;;;;;;;3.35;2.30;;;16.10;93.90;;;;;;6214225;23;20438;-72
2023/05/20 07:21:14;;;;;;;4.85;2.22;;;16.20;93.70;;;;;;6241393;23;20426;-72
2023/05/20 07:23:40;;;;;;;5.22;2.58;;;16.30;93.20;;;;;;6241609;23;20060;-73
2023/05/20 07:26:05;;;;;;;4.78;2.25;;;16.30;92.70;;;;;;6215936;23;20437;-73
2023/05/20 07:28:31;;;;;;;5.68;2.88;;;16.40;92.50;;;;;;6215147;23;20075;-72
2023/05/20 07:30:59;;;;;;;6.72;2.50;;;16.50;92.20;;;;;;6241787;23;20498;-72
2023/05/20 07:33:24;;;;;;;3.85;2.20;;;16.60;92.20;;;;;;6240834;23;19997;-72
2023/05/20 07:35:53;;;;;;;4.63;2.55;;;16.70;91.90;;;;;;6241903;23;20000;-72
2023/05/20 07:38:18;;;;;;;3.13;2.38;;;16.80;91.60;;;;;;6240917;23;20084;-72
2023/05/20 07:40:44;;;;;;;3.25;2.63;;;16.90;91.70;;;;;;6241566;23;20035;-72
2023/05/20 07:43:09;;;;;;;4.03;2.65;;;17.00;91.50;;;;;;6240831;23;20004;-72
2023/05/20 07:45:35;;;;;;;5.18;2.75;;;17.10;91.30;;;;;;6241148;23;19997;-72
2023/05/20 07:48:02;;;;;;;3.38;2.30;;;17.10;90.70;;;;;;6214484;23;20012;-72
2023/05/20 07:50:27;;;;;;;3.95;2.65;;;17.20;90.90;;;;;;6214221;23;20000;-72
2023/05/20 07:52:53;;;;;;;4.05;2.78;;;17.30;90.10;;;;;;6241046;23;20062;-73
2023/05/20 07:55:18;;;;;;;2.65;2.05;;;17.40;89.30;;;;;;6214298;23;20011;-71
2023/05/20 07:57:44;;;;;;;5.50;2.15;;;17.30;89.80;;;;;;6213284;23;20087;-72
2023/05/20 08:00:11;;;;;;;2.85;2.08;;;17.50;89.70;;;;;;6241224;23;20004;-73
2023/05/20 08:02:37;;;;;;;3.92;2.38;;;17.60;88.80;;;;;;6241216;23;20357;-73
2023/05/20 08:05:03;;;;;;;4.22;2.63;;;17.70;88.10;;;;;;6241143;23;19996;-72
2023/05/20 08:07:29;;;;;;;3.92;2.50;;;17.70;86.70;;;;;;6240815;23;20035;-72
2023/05/20 08:09:55;;;;;;;3.10;2.42;;;17.70;86.90;;;;;;6214200;23;20035;-72
2023/05/20 08:12:21;;;;;;;4.75;3.03;;;17.70;86.20;;;;;;6239981;23;20030;-73
2023/05/20 08:14:46;;;;;;;3.00;2.03;;;17.70;86.10;;;;;;6241321;23;20016;-73
2023/05/20 08:17:12;;;;;;;3.85;2.67;;;17.80;86.00;;;;;;6241528;23;20011;-73
2023/05/20 08:19:38;;;;;;;4.13;2.60;;;17.80;85.80;;;;;;6240797;23;20000;-72
2023/05/20 08:22:04;;;;;;;4.80;2.15;;;17.90;85.60;;;;;;6241672;23;20007;-72
2023/05/20 08:24:30;;;;;;;4.80;2.50;;;18.00;85.30;;;;;;6240681;23;20387;-73
2023/05/20 08:26:56;;;;;;;5.32;2.83;;;18.10;85.30;;;;;;6215608;23;20289;-73
2023/05/20 08:29:22;;;;;;;3.80;2.20;;;18.20;84.80;;;;;;6242562;23;20004;-74
2023/05/20 08:31:48;;;;;;;6.50;2.90;;;18.30;84.50;;;;;;6244142;23;19996;-74
2023/05/20 08:34:14;;;;;;;4.15;2.50;;;18.30;83.30;;;;;;6216253;23;20004;-74
2023/05/20 08:36:44;;;;;;;4.32;2.17;;;18.30;83.20;;;;;;6215889;23;20004;-71
2023/05/20 08:39:10;;;;;;;6.70;2.50;;;18.30;81.80;;;;;;6243236;23;19996;-73
2023/05/20 08:41:38;;;;;;;5.18;2.55;;;18.20;81.70;;;;;;6241432;23;20004;-73
2023/05/20 08:44:05;;;;;;;3.17;2.20;;;18.30;81.00;;;;;;6243175;23;20027;-73
2023/05/20 08:46:34;;;;;;;5.68;2.58;;;18.20;81.60;;;;;;6243207;23;20031;-72
2023/05/20 08:49:00;;;;;;;3.38;2.20;;;18.20;81.30;;;;;;6243576;23;20012;-73
2023/05/20 08:51:26;;;;;;;4.03;2.63;;;18.40;82.10;;;;;;6216427;23;20375;-73
2023/05/20 08:53:52;;;;;;;3.90;2.78;;;18.40;81.40;;;;;;6243952;23;19996;-73
2023/05/20 08:56:20;;;;;;;4.05;2.38;;;18.50;81.00;;;;;;6215746;23;20135;-73
2023/05/20 08:58:46;;;;;;;3.72;2.00;;;18.50;81.10;;;;;;6243319;23;20010;-73
2023/05/20 09:01:12;;;;;;;4.60;2.55;;;18.60;81.00;;;;;;6243028;23;20036;-73
2023/05/20 09:03:37;;;;;;;4.60;2.88;;;18.70;81.30;;;;;;6216571;23;20004;-73
2023/05/20 09:06:07;;;;;;;2.80;2.05;;;18.80;79.80;;;;;;6216206;23;20059;-73
2023/05/20 09:08:34;;;;;;;2.25;1.60;;;18.80;79.40;;;;;;6242647;23;20394;-72
2023/05/20 09:11:00;;;;;;;4.38;1.63;;;18.80;78.50;;;;;;6216186;23;20004;-73
2023/05/20 09:13:28;;;;;;;4.35;2.05;;;18.80;79.30;;;;;;6242725;23;20000;-74
2023/05/20 09:15:54;;;;;;;4.63;1.88;;;18.90;77.40;;;;;;6242695;23;20143;-73
2023/05/20 09:18:19;;;;;;;3.10;1.60;;;19.00;76.50;;;;;;6243119;23;20043;-73
2023/05/20 09:20:51;;;;;;;2.92;1.73;;;19.00;76.70;;;;;;6242580;23;20131;-73
2023/05/20 09:23:19;;;;;;;11.45;2.17;;;19.00;75.60;;;;;;6214809;23;20011;-73
2023/05/20 09:25:48;;;;;;;3.42;2.08;;;18.90;75.70;;;;;;6215425;23;20016;-73
2023/05/20 09:28:13;;;;;;;4.95;1.77;;;18.90;75.40;;;;;;6215390;23;20008;-73
2023/05/20 09:30:42;;;;;;;3.75;1.85;;;18.90;76.30;;;;;;6241894;23;20011;-74
2023/05/20 09:33:08;;;;;;;3.58;1.42;;;19.00;76.30;;;;;;6215374;23;20004;-73
2023/05/20 09:35:37;;;;;;;4.15;1.77;;;19.10;76.50;;;;;;6241925;23;20000;-73
2023/05/20 09:38:06;;;;;;;3.13;1.77;;;19.10;77.10;;;;;;6241613;22;20004;-74
2023/05/20 09:40:32;;;;;;;2.40;1.73;;;19.30;77.10;;;;;;6242475;23;20023;-73
2023/05/20 09:43:02;;;;;;;5.75;1.88;;;19.50;76.50;;;;;;6242759;23;20000;-74
2023/05/20 09:45:28;;;;;;;4.28;2.10;;;19.60;74.60;;;;;;6215381;23;20014;-73
2023/05/20 09:47:55;;;;;;;3.03;1.75;;;19.50;73.70;;;;;;6242795;23;20083;-74
2023/05/20 09:50:22;;;;;;;2.25;1.65;;;19.40;74.00;;;;;;6242320;23;20054;-73
2023/05/20 09:52:52;;;;;;;5.55;1.80;;;19.40;74.00;;;;;;6241719;23;20167;-71
2023/05/20 09:55:20;;;;;;;3.83;2.00;;;19.40;73.90;;;;;;6241224;23;20146;-73
2023/05/20 09:57:46;;;;;;;2.13;1.27;;;19.40;73.90;;;;;;6241262;23;20103;-72
2023/05/20 10:00:14;;;;;;;1.92;1.45;;;19.40;73.90;;;;;;6215050;23;20004;-73
2023/05/20 10:02:48;;;;;;;3.38;1.90;;;19.40;73.80;;;;;;6240896;23;20000;-72
2023/05/20 10:05:24;;;;;;;3.80;2.20;;;19.40;73.90;;;;;;6241145;23;20020;-72
2023/05/20 10:08:24;;;;;;;4.07;2.10;;;19.50;75.10;;;;;;6239447;23;20016;-72
2023/05/20 10:11:32;;;;;;;2.80;1.35;;;19.50;73.60;;;;;;6241523;23;20000;-72
2023/05/20 10:14:12;;;;;;;3.08;1.85;;;19.50;73.30;;;;;;6182919;23;20004;-72
2023/05/20 10:17:00;;;;;;;2.85;1.38;;;19.60;73.80;;;;;;6241025;23;20479;-72
2023/05/20 10:19:31;;;;;;;3.72;2.00;;;19.60;73.70;;;;;;6241828;23;20000;-72
2023/05/20 10:22:01;;;;;;;2.65;2.20;;;19.60;73.50;;;;;;6214602;23;20106;-73
2023/05/20 10:24:31;;;;;;;3.17;1.88;;;19.60;73.40;;;;;;6241427;23;20395;-72
2023/05/20 10:27:00;;;;;;;3.33;1.80;;;19.50;73.60;;;;;;6241446;23;20012;-72
2023/05/20 10:29:26;;;;;;;2.42;1.90;;;19.60;73.70;;;;;;6241329;23;20000;-72
2023/05/20 10:31:52;;;;;;;2.72;1.58;;;19.60;73.90;;;;;;6242355;23;20000;-73
2023/05/20 10:34:19;;;;;;;2.88;1.80;;;19.70;73.70;;;;;;6243141;23;20031;-73
2023/05/20 10:36:54;;;;;;;4.00;2.15;;;19.60;72.40;;;;;;6241528;23;19996;-73
2023/05/20 10:39:34;;;;;;;2.75;2.03;;;19.60;72.70;;;;;;6241526;23;20413;-72
2023/05/20 10:42:07;;;;;;;4.68;1.50;;;19.50;72.40;;;;;;6242250;23;20011;-72
2023/05/20 10:44:43;;;;;;;3.65;1.88;;;19.60;72.90;;;;;;6214256;23;20341;-73
2023/05/20 10:47:09;;;;;;;2.03;1.50;;;19.60;73.00;;;;;;6242495;23;20000;-72
2023/05/20 10:49:38;;;;;;;1.73;1.38;;;19.70;71.90;;;;;;6242855;23;20004;-72
2023/05/20 10:52:08;;;;;;;3.63;1.73;;;19.80;73.20;;;;;;6242700;23;20003;-71
2023/05/20 10:54:36;;;;;;;2.65;1.70;;;19.90;72.90;;;;;;6241166;23;19996;-72
2023/05/20 10:57:08;;;;;;;2.45;1.50;;;19.90;72.00;;;;;;6215048;23;20031;-73
2023/05/20 10:59:34;;;;;;;6.15;1.73;;;19.90;72.70;;;;;;6241182;23;20445;-73
2023/05/20 11:02:01;;;;;;;3.10;1.33;;;20.00;72.10;;;;;;6241656;23;20027;-72
2023/05/20 11:04:28;;;;;;;4.22;1.45;;;20.00;72.40;;;;;;6241348;23;20062;-72
2023/05/20 11:06:54;;;;;;;2.05;1.63;;;20.10;72.30;;;;;;6240377;23;20027;-73
2023/05/20 11:09:23;;;;;;;4.75;1.80;;;20.20;72.20;;;;;;6241205;23;20083;-72
2023/05/20 11:11:53;;;;;;;2.80;1.85;;;20.30;71.20;;;;;;6214833;23;20000;-72
2023/05/20 11:14:20;;;;;;;2.03;1.20;;;20.40;71.20;;;;;;6241334;23;20007;-72
2023/05/20 11:16:50;;;;;;;2.45;1.58;;;20.40;70.80;;;;;;6241309;23;20049;-73
2023/05/20 11:19:17;;;;;;;3.70;1.40;;;20.50;71.30;;;;;;6240921;23;20448;-73
2023/05/20 11:21:44;;;;;;;4.28;1.45;;;20.60;71.70;;;;;;6241228;23;20453;-73
2023/05/20 11:24:10;;;;;;;3.33;1.92;;;20.70;70.80;;;;;;6241136;23;20450;-73
2023/05/20 11:26:36;;;;;;;2.00;1.52;;;20.70;70.30;;;;;;6240896;23;20015;-73
2023/05/20 11:29:02;;;;;;;3.55;1.60;;;20.80;70.40;;;;;;6241324;23;20004;-72
2023/05/20 11:31:27;;;;;;;6.55;2.10;;;20.70;70.00;;;;;;6213545;23;20000;-72
2023/05/20 11:33:53;;;;;;;3.47;1.50;;;20.70;70.10;;;;;;6213240;23;20001;-72
2023/05/20 11:36:18;;;;;;;6.25;1.80;;;20.70;69.50;;;;;;6240758;23;20023;-73
2023/05/20 11:38:47;;;;;;;1.58;1.25;;;20.60;69.10;;;;;;6241391;23;20008;-73
2023/05/20 11:41:13;;;;;;;1.65;1.05;;;20.60;69.80;;;;;;6240199;23;20031;-73
2023/05/20 11:43:40;;;;;;;3.97;1.95;;;20.60;70.00;;;;;;6240809;23;20778;-73
2023/05/20 11:46:05;;;;;;;2.95;1.38;;;20.70;69.00;;;;;;6214120;23;20004;-73
2023/05/20 11:48:31;;;;;;;2.28;1.15;;;20.70;68.40;;;;;;6240479;23;20008;-73
2023/05/20 11:50:57;;;;;;;5.75;1.48;;;20.80;68.50;;;;;;6241350;23;20008;-72
2023/05/20 11:53:23;;;;;;;1.70;1.42;;;20.90;68.70;;;;;;6241158;23;20000;-72
2023/05/20 11:55:57;;;;;;;3.60;1.77;;;21.00;68.50;;;;;;6213902;23;20315;-72
2023/05/20 11:58:25;;;;;;;2.17;1.63;;;21.20;67.70;;;;;;6240944;23;20008;-73
2023/05/20 12:00:50;;;;;;;3.20;1.23;;;21.40;67.80;;;;;;6240643;23;20417;-72
2023/05/20 12:03:16;;;;;;;3.85;1.20;;;21.60;66.80;;;;;;6240438;23;20000;-72
2023/05/20 12:05:42;;;;;;;3.08;1.35;;;21.70;66.40;;;;;;6240872;23;20020;-72
2023/05/20 12:08:08;;;;;;;2.03;1.27;;;21.70;65.60;;;;;;6213939;23;20008;-72
2023/05/20 12:10:36;;;;;;;4.53;1.73;;;21.80;65.40;;;;;;6240515;23;20076;-73
2023/05/20 12:13:02;;;;;;;2.75;1.60;;;21.70;65.30;;;;;;6241161;23;20007;-73
2023/05/20 12:15:28;;;;;;;1.75;1.25;;;21.60;66.00;;;;;;6213833;23;20004;-72
2023/05/20 12:17:54;;;;;;;3.58;1.40;;;21.50;65.40;;;;;;6240044;23;20004;-72
2023/05/20 12:20:24;;;;;;;4.10;1.30;;;21.50;65.70;;;;;;6213976;23;20260;-73
2023/05/20 12:22:50;;;;;;;3.88;1.63;;;21.50;65.90;;;;;;6212949;23;20058;-73
2023/05/20 12:25:18;;;;;;;4.03;1.65;;;21.50;65.60;;;;;;6213476;23;20011;-72
2023/05/20 12:27:47;;;;;;;2.47;1.20;;;21.50;66.00;;;;;;6240298;23;20008;-73
2023/05/20 12:30:15;;;;;;;2.05;1.48;;;21.60;66.10;;;;;;6240742;23;20020;-72
2023/05/20 12:32:42;;;;;;;2.67;1.60;;;21.80;66.40;;;;;;6239953;23;19996;-73
2023/05/20 12:35:08;;;;;;;2.72;1.13;;;21.90;66.10;;;;;;6214109;23;20000;-73
2023/05/20 12:37:35;;;;;;;3.10;0.90;;;22.10;65.70;;;;;;6240086;23;20070;-73
2023/05/20 12:40:02;;;;;;;4.35;1.50;;;22.30;65.10;;;;;;6213717;23;20007;-73
2023/05/20 12:42:28;;;;;;;3.50;1.17;;;22.40;64.10;;;;;;6240410;23;20001;-73
2023/05/20 12:44:54;;;;;;;6.68;1.67;;;22.40;64.00;;;;;;6240396;23;20830;-73